Time;durP1;ratioP1;P1;durP2;ratioP2;P2;SDS_P1;SDS_P2;PMS_P1;PMS_P2;Temp;Humidity;BMP_temperature;BMP_pressure;BME280_temperature;BME280_humidity;BME280_pressure;Samples;Min_cycle;Max_cycle;Signal;HPM_P1;HPM_P2
2021/05/06 00:06:12;;;;;;;6.68;1.60;;;;;;;3.87;75.87;95821.63;4954696;28;20047;-76
2021/05/06 00:11:20;;;;;;;5.72;1.65;;;;;;;3.72;76.60;95815.88;4958143;29;20054;-76
2021/05/06 00:32:42;;;;;;;6.38;1.70;;;;;;;3.65;75.75;95807.28;4954446;28;20049;-76
2021/05/06 00:35:09;;;;;;;5.47;1.73;;;;;;;3.74;75.05;95807.88;4954240;28;20051;-76
2021/05/06 00:37:45;;;;;;;6.32;1.77;;;;;;;3.62;75.72;95799.88;4953853;28;20047;-76
2021/05/06 00:40:14;;;;;;;6.43;1.90;;;;;;;3.52;75.94;95802.09;4954011;28;20041;-75
2021/05/06 01:01:38;;;;;;;6.35;1.60;;;;;;;3.24;76.64;95794.50;4974339;28;20099;-75
2021/05/06 01:09:23;;;;;;;5.55;1.52;;;;;;;3.13;76.76;95795.91;4969754;28;20074;-75
2021/05/06 01:12:00;;;;;;;6.72;1.70;;;;;;;3.31;76.23;95792.69;4972015;28;20042;-75
2021/05/06 01:14:29;;;;;;;6.18;1.65;;;;;;;3.24;75.77;95786.72;4972925;29;20043;-74
2021/05/06 01:16:55;;;;;;;5.70;1.45;;;;;;;3.37;75.48;95797.88;4974937;29;20059;-74
2021/05/06 01:19:23;;;;;;;8.45;1.80;;;;;;;3.14;76.47;95787.09;4975748;29;20134;-74
2021/05/06 01:21:52;;;;;;;5.50;1.50;;;;;;;3.12;76.95;95781.28;4988479;28;20480;-75
2021/05/06 01:24:17;;;;;;;7.18;1.90;;;;;;;3.10;77.37;95784.09;4970706;28;20050;-74
2021/05/06 01:26:54;;;;;;;7.53;1.80;;;;;;;3.17;77.46;95784.09;4977777;28;20067;-75
2021/05/06 01:29:26;;;;;;;7.15;1.95;;;;;;;3.25;76.54;95786.50;4965688;28;20035;-73
2021/05/06 01:32:01;;;;;;;7.07;1.88;;;;;;;3.38;75.78;95783.88;4958751;28;20039;-73
2021/05/06 01:34:27;;;;;;;6.25;2.00;;;;;;;3.33;76.16;95788.09;4958028;28;20039;-73
2021/05/06 01:36:59;;;;;;;5.82;1.58;;;;;;;3.38;75.46;95799.47;4963894;28;20043;-73
2021/05/06 01:50:26;;;;;;;7.57;1.98;;;;;;;3.53;74.29;95790.69;4967797;28;20063;-73
2021/05/06 02:01:03;;;;;;;;;;;;;;;3.73;73.81;95799.28;4967098;29;20051;-73
2021/05/06 02:03:29;;;;;;;5.28;1.70;;;;;;;3.59;74.97;95797.69;4970686;29;19933;-73
2021/05/06 02:05:55;;;;;;;6.70;2.10;;;;;;;3.63;75.02;95801.47;4970570;28;20063;-73
2021/05/06 02:08:22;;;;;;;7.90;2.13;;;;;;;3.63;74.89;95809.28;4963638;28;20043;-73
2021/05/06 02:10:48;;;;;;;5.65;1.92;;;;;;;3.58;74.23;95799.47;4959323;28;20392;-73
2021/05/06 02:13:16;;;;;;;7.70;2.30;;;;;;;3.67;74.28;95805.28;4978891;28;20050;-73
2021/05/06 02:15:46;;;;;;;;;;;;;;;3.59;74.06;95797.69;4962344;28;20066;-72
2021/05/06 02:18:15;;;;;;;7.32;1.90;;;;;;;3.65;73.38;95796.88;4960304;29;20398;-73
2021/05/06 02:20:41;;;;;;;5.88;1.80;;;;;;;3.54;73.35;95794.88;4963402;28;20050;-72
2021/05/06 02:23:09;;;;;;;6.72;1.70;;;;;;;3.50;73.78;95794.50;4958536;28;20058;-73
2021/05/06 02:25:35;;;;;;;;;;;;;;;3.48;73.85;95795.69;4973848;28;20043;-73
2021/05/06 02:28:04;;;;;;;7.68;2.17;;;;;;;3.38;74.24;95793.50;4957906;29;19929;-73
2021/05/06 02:30:29;;;;;;;8.93;2.15;;;;;;;3.39;74.49;95782.91;4975901;28;20111;-73
2021/05/06 02:32:58;;;;;;;8.60;2.20;;;;;;;3.37;73.89;95779.69;4982296;28;20043;-73
2021/05/06 02:35:24;;;;;;;7.18;2.13;;;;;;;3.48;73.68;95780.09;4951241;29;20054;-74
2021/05/06 02:37:49;;;;;;;8.30;2.15;;;;;;;3.53;74.02;95772.47;4964131;28;20047;-74
2021/05/06 02:40:15;;;;;;;8.00;2.33;;;;;;;3.50;73.61;95770.28;4960227;29;20095;-75
2021/05/06 02:42:44;;;;;;;8.00;2.70;;;;;;;3.34;74.31;95759.31;4960235;29;20038;-75
2021/05/06 02:45:10;;;;;;;7.90;1.90;;;;;;;3.31;74.63;95758.91;4956646;28;20073;-75
2021/05/06 02:47:36;;;;;;;8.40;2.00;;;;;;;3.35;74.78;95765.31;4956294;28;20468;-76
2021/05/06 02:50:02;;;;;;;9.00;2.00;;;;;;;3.41;74.49;95764.50;4957317;29;20544;-75
2021/05/06 02:52:42;;;;;;;7.53;2.35;;;;;;;3.42;74.28;95766.09;4956832;28;20035;-76
2021/05/06 02:55:18;;;;;;;9.20;2.10;;;;;;;3.45;74.23;95770.91;4956009;28;20040;-76
2021/05/06 02:57:51;;;;;;;7.65;2.13;;;;;;;3.47;73.78;95768.88;4957328;28;20106;-75
2021/05/06 03:03:02;;;;;;;6.85;1.90;;;;;;;3.49;73.77;95755.69;4955160;29;20053;-75
2021/05/06 03:05:32;;;;;;;8.38;2.15;;;;;;;3.37;74.16;95743.28;4956737;28;20122;-74
2021/05/06 03:23:49;;;;;;;10.68;2.55;;;;;;;3.39;74.35;95738.72;4955603;28;20304;-75
2021/05/06 03:26:15;;;;;;;9.98;2.40;;;;;;;3.44;74.84;95738.09;4955987;28;20059;-75
2021/05/06 03:28:54;;;;;;;8.65;2.50;;;;;;;3.44;74.40;95743.28;4956899;28;20071;-75
2021/05/06 03:42:08;;;;;;;9.65;2.97;;;;;;;3.69;74.74;95738.25;4956768;29;20070;-75
2021/05/06 04:17:04;;;;;;;10.23;2.95;;;;;;;3.99;75.44;95704.75;4973078;29;20057;-74
2021/05/06 04:27:36;;;;;;;9.25;2.65;;;;;;;3.99;75.22;95696.13;4959121;29;20047;-76
2021/05/06 04:37:50;;;;;;;7.95;2.40;;;;;;;4.28;74.80;95698.19;4972537;28;20047;-75
2021/05/06 04:40:49;;;;;;;8.85;2.83;;;;;;;4.25;75.02;95683.00;4975649;28;20047;-75
2021/05/06 04:46:40;;;;;;;8.30;2.58;;;;;;;4.64;74.03;95688.97;4968471;28;20122;-74
2021/05/06 04:54:43;;;;;;;10.32;2.58;;;;;;;4.92;72.64;95702.38;4957784;29;20058;-75
2021/05/06 05:04:54;;;;;;;9.10;2.30;;;;;;;5.24;72.30;95694.50;4958115;29;20102;-75
2021/05/06 05:07:24;;;;;;;9.43;2.50;;;;;;;5.28;72.26;95690.47;4957993;28;20051;-75
2021/05/06 05:12:42;;;;;;;8.13;2.13;;;;;;;5.60;70.73;95690.34;4958134;28;20044;-73
2021/05/06 05:17:40;;;;;;;6.68;2.22;;;;;;;5.45;70.75;95693.31;4957476;28;20411;-73
2021/05/06 05:18:22;;;;;;;6.90;2.00;;;;;;;5.54;71.79;95684.16;4957529;28;20059;-74
2021/05/06 05:23:24;;;;;;;7.93;2.20;;;;;;;5.42;71.60;95684.09;4959510;28;20127;-74
2021/05/06 05:24:02;;;;;;;6.95;1.92;;;;;;;5.70;70.59;95691.41;4959809;28;20102;-72
2021/05/06 05:26:24;;;;;;;8.88;2.13;;;;;;;5.70;69.61;95680.19;4957040;29;20134;-73
2021/05/06 05:28:50;;;;;;;7.50;2.22;;;;;;;5.67;70.48;95680.63;4957050;28;20126;-75
2021/05/06 05:31:16;;;;;;;8.27;2.17;;;;;;;5.67;71.35;95678.81;4955360;28;20043;-74
2021/05/06 05:33:57;;;;;;;9.18;2.30;;;;;;;5.67;70.95;95673.59;4957292;28;20464;-75
2021/05/06 05:36:25;;;;;;;8.18;2.30;;;;;;;5.64;71.18;95665.41;4957148;28;20043;-75
2021/05/06 05:39:36;;;;;;;7.88;2.42;;;;;;;5.82;70.90;95659.41;4961630;28;20047;-75
2021/05/06 05:55:01;;;;;;;6.28;1.90;;;;;;;6.45;67.56;95665.00;4969231;28;20109;-70
2021/05/06 05:57:27;;;;;;;6.72;2.30;;;;;;;6.55;67.64;95664.47;4991480;28;20075;-74
2021/05/06 05:59:56;;;;;;;7.43;2.13;;;;;;;6.91;67.26;95666.16;4961193;28;20043;-75
2021/05/06 06:02:21;;;;;;;6.70;2.15;;;;;;;7.47;65.05;95670.00;4971136;28;20073;-71
2021/05/06 06:04:47;;;;;;;10.15;2.60;;;;;;;7.32;65.46;95654.81;4965343;28;20453;-74
2021/05/06 06:07:13;;;;;;;7.15;2.20;;;;;;;7.65;64.51;95660.47;4970861;28;20146;-73
2021/05/06 06:09:39;;;;;;;7.05;2.40;;;;;;;8.80;61.58;95656.84;4985721;28;20027;-72
2021/05/06 06:12:05;;;;;;;9.70;3.15;;;;;;;8.39;61.27;95646.47;4972683;28;20411;-73
2021/05/06 06:15:21;;;;;;;13.35;3.40;;;;;;;8.06;62.28;95636.66;4958688;29;20047;-73
2021/05/06 06:17:17;;;;;;;9.73;3.13;;;;;;;7.91;62.41;95639.00;4964356;28;20047;-74
2021/05/06 06:19:48;;;;;;;8.52;2.70;;;;;;;7.96;61.88;95638.28;4955758;28;20046;-71
2021/05/06 06:22:17;;;;;;;9.77;2.55;;;;;;;7.59;62.58;95636.78;4955186;28;20050;-71
2021/05/06 06:24:43;;;;;;;8.70;2.40;;;;;;;7.49;63.06;95641.81;4956697;28;20035;-72
2021/05/06 06:27:12;;;;;;;10.57;3.28;;;;;;;7.60;63.50;95642.81;4955416;28;20043;-72
2021/05/06 06:29:39;;;;;;;8.90;2.70;;;;;;;7.66;62.89;95649.75;4960788;28;20559;-74
2021/05/06 06:32:08;;;;;;;9.20;2.40;;;;;;;7.10;64.08;95649.34;4956454;28;20462;-72
2021/05/06 06:34:36;;;;;;;9.02;2.28;;;;;;;7.21;64.32;95649.53;4956590;28;20561;-75
2021/05/06 06:37:02;;;;;;;6.70;2.15;;;;;;;7.40;63.84;95648.41;4957890;28;20050;-75
2021/05/06 06:39:29;;;;;;;9.10;2.47;;;;;;;7.36;63.47;95636.81;4965149;28;20074;-77
2021/05/06 06:41:56;;;;;;;7.80;2.27;;;;;;;7.35;64.39;95633.41;4949443;29;20074;-77
2021/05/06 06:44:27;;;;;;;9.00;2.50;;;;;;;7.16;68.23;95631.13;4957127;28;20406;-76
2021/05/06 06:47:06;;;;;;;8.40;2.45;;;;;;;7.24;67.97;95634.19;4957612;28;20047;-74
2021/05/06 06:49:34;;;;;;;10.00;2.40;;;;;;;7.19;67.82;95644.56;4956065;28;20148;-74
2021/05/06 06:52:02;;;;;;;9.90;2.80;;;;;;;7.06;67.61;95637.75;4956766;28;20043;-75
2021/05/06 06:54:38;;;;;;;7.68;2.80;;;;;;;7.05;67.10;95643.22;4958991;28;20047;-75
2021/05/06 06:57:05;;;;;;;7.80;2.35;;;;;;;7.13;66.34;95639.44;4956549;28;20049;-78
2021/05/06 06:59:31;;;;;;;9.18;2.53;;;;;;;7.36;65.06;95637.59;4959562;28;20570;-78
2021/05/06 07:01:56;;;;;;;7.20;2.47;;;;;;;7.21;65.88;95634.69;4964279;28;20035;-74
2021/05/06 07:04:22;;;;;;;8.73;2.58;;;;;;;7.31;65.46;95628.84;4955463;29;20047;-72
2021/05/06 07:06:48;;;;;;;8.10;2.70;;;;;;;7.27;64.86;95622.50;4955649;28;20059;-78
2021/05/06 07:09:14;;;;;;;7.75;2.65;;;;;;;7.28;66.16;95619.66;4954612;29;20407;-73
2021/05/06 07:11:41;;;;;;;6.45;2.05;;;;;;;7.28;66.00;95622.25;4957073;28;20047;-77
2021/05/06 07:14:07;;;;;;;8.07;2.15;;;;;;;7.45;65.09;95614.50;4958180;29;20051;-78
2021/05/06 07:16:33;;;;;;;9.27;2.50;;;;;;;7.63;64.27;95622.19;4958528;28;20062;-72
2021/05/06 07:19:01;;;;;;;8.70;2.60;;;;;;;7.62;64.10;95607.53;4955813;29;20122;-74
2021/05/06 07:21:31;;;;;;;6.97;2.15;;;;;;;7.97;62.32;95593.53;4970903;28;20044;-74
2021/05/06 07:23:59;;;;;;;10.02;2.17;;;;;;;8.10;60.97;95588.00;4955795;28;20046;-74
2021/05/06 07:26:26;;;;;;;7.15;2.15;;;;;;;7.88;61.28;95593.09;4955491;28;20044;-71
2021/05/06 07:28:53;;;;;;;7.65;2.38;;;;;;;7.81;62.12;95602.94;4954897;28;20051;-74
2021/05/06 07:31:23;;;;;;;8.63;2.37;;;;;;;7.72;62.11;95588.59;4970440;28;20393;-74
2021/05/06 07:33:50;;;;;;;7.10;2.35;;;;;;;8.07;60.83;95596.34;4956233;28;20047;-83
2021/05/06 07:36:17;;;;;;;7.50;2.13;;;;;;;8.43;60.03;95594.34;4966171;28;20208;-81
2021/05/06 07:38:43;;;;;;;5.78;1.98;;;;;;;8.89;57.84;95588.03;4958717;28;20134;-77
2021/05/06 07:41:11;;;;;;;6.97;2.20;;;;;;;8.88;58.44;95588.28;4957565;29;20039;-78
2021/05/06 07:43:37;;;;;;;8.18;2.22;;;;;;;9.13;57.24;95588.63;4959943;28;20040;-75
2021/05/06 07:46:04;;;;;;;7.82;2.30;;;;;;;9.21;57.13;95579.56;4955198;29;20043;-77
2021/05/06 07:48:30;;;;;;;10.23;3.17;;;;;;;9.98;56.15;95579.41;4956408;29;20058;-68
2021/05/06 07:50:55;;;;;;;6.50;2.10;;;;;;;10.33;55.32;95580.03;4957191;28;20035;-71
2021/05/06 07:53:26;;;;;;;6.45;2.10;;;;;;;10.64;54.41;95574.00;4971504;28;20451;-74
2021/05/06 07:55:57;;;;;;;7.80;2.00;;;;;;;10.78;51.99;95572.53;4961133;28;20173;-72
2021/05/06 07:58:22;;;;;;;9.95;2.20;;;;;;;11.00;51.15;95566.38;4967454;28;20137;-77
2021/05/06 08:00:48;;;;;;;7.43;2.20;;;;;;;11.45;50.26;95565.03;4980075;28;20034;-77
2021/05/06 08:03:15;;;;;;;8.35;2.30;;;;;;;11.40;49.26;95551.84;4972088;28;20410;-75
2021/05/06 08:05:41;;;;;;;7.47;1.98;;;;;;;11.44;49.06;95555.56;4961915;28;20053;-71
2021/05/06 08:08:10;;;;;;;7.28;1.95;;;;;;;11.48;48.50;95538.19;4961229;29;20047;-73
2021/05/06 08:10:36;;;;;;;7.55;2.00;;;;;;;11.66;48.73;95537.72;4961275;28;20211;-69
2021/05/06 08:13:05;;;;;;;11.15;2.80;;;;;;;11.20;50.60;95534.91;4968775;29;20039;-68
2021/05/06 08:15:31;;;;;;;10.38;2.58;;;;;;;11.05;50.34;95542.72;4971535;28;20070;-71
2021/05/06 08:17:57;;;;;;;7.68;2.55;;;;;;;11.20;50.42;95536.75;4974359;28;20043;-70
2021/05/06 08:20:25;;;;;;;8.15;2.25;;;;;;;11.30;49.77;95537.59;4964811;28;20042;-69
2021/05/06 08:22:50;;;;;;;7.30;1.80;;;;;;;11.30;48.47;95526.28;4961256;28;20043;-71
2021/05/06 08:25:23;;;;;;;12.13;3.13;;;;;;;11.61;47.83;95532.44;4961778;28;20047;-74
2021/05/06 08:27:51;;;;;;;11.40;2.67;;;;;;;11.93;46.64;95529.66;4960883;28;20481;-71
2021/05/06 08:30:17;;;;;;;8.23;2.00;;;;;;;11.42;47.34;95542.66;4961355;28;20431;-79
2021/05/06 08:32:43;;;;;;;6.68;1.70;;;;;;;11.34;47.07;95542.34;4961568;28;20168;-75
2021/05/06 08:35:10;;;;;;;6.60;1.83;;;;;;;11.26;47.83;95546.25;4959780;28;20051;-65
2021/05/06 08:37:37;;;;;;;7.43;1.77;;;;;;;11.40;46.81;95546.56;4969210;28;20419;-70
2021/05/06 08:40:04;;;;;;;7.00;1.92;;;;;;;11.46;47.34;95542.91;4961338;28;20546;-66
2021/05/06 08:42:30;;;;;;;7.57;1.90;;;;;;;11.48;47.53;95543.47;4962666;28;20046;-79
2021/05/06 08:44:59;;;;;;;7.32;1.70;;;;;;;11.46;46.94;95551.63;4959739;29;20065;-70
2021/05/06 08:47:28;;;;;;;5.72;1.88;;;;;;;10.98;48.70;95542.94;4977079;28;20039;-68
2021/05/06 08:49:53;;;;;;;7.25;2.10;;;;;;;11.37;47.67;95533.94;4961345;28;20534;-68
2021/05/06 08:52:20;;;;;;;7.18;1.90;;;;;;;11.28;47.08;95523.88;4960966;29;20043;-68
2021/05/06 08:54:47;;;;;;;7.20;1.70;;;;;;;11.46;46.22;95529.75;4961035;28;20051;-73
2021/05/06 08:57:14;;;;;;;7.38;1.88;;;;;;;10.91;46.68;95526.56;4963820;28;20066;-63
2021/05/06 08:59:39;;;;;;;6.75;1.67;;;;;;;11.04;46.53;95527.97;4960815;28;20055;-70
2021/05/06 09:02:05;;;;;;;8.20;1.80;;;;;;;11.14;46.92;95533.31;4961226;28;20044;-70
2021/05/06 09:04:31;;;;;;;6.80;1.88;;;;;;;11.24;46.98;95533.31;4959869;28;20090;-73
2021/05/06 09:06:58;;;;;;;6.38;1.92;;;;;;;11.40;46.09;95528.94;4960486;28;20496;-78
2021/05/06 09:09:28;;;;;;;7.10;1.88;;;;;;;11.41;46.54;95527.91;4956696;29;20043;-76
2021/05/06 09:12:00;;;;;;;8.25;1.90;;;;;;;11.17;45.98;95530.13;4959961;28;20046;-78
2021/05/06 09:14:40;;;;;;;7.72;1.83;;;;;;;11.11;47.02;95533.00;4957814;28;20574;-68
2021/05/06 09:17:22;;;;;;;9.43;2.13;;;;;;;11.25;47.16;95521.78;4967339;28;20066;-75
2021/05/06 09:19:54;;;;;;;5.20;1.55;;;;;;;11.34;46.50;95537.84;4954686;29;20507;-70
2021/05/06 09:22:31;;;;;;;7.88;1.90;;;;;;;11.38;46.90;95538.16;4971981;28;20055;-73
2021/05/06 09:24:56;;;;;;;9.13;1.83;;;;;;;11.57;46.82;95526.91;4957511;29;20047;-75
2021/05/06 09:27:28;;;;;;;6.32;1.50;;;;;;;11.28;46.12;95526.50;4956308;29;20451;-67
2021/05/06 09:29:54;;;;;;;5.78;1.67;;;;;;;11.07;46.84;95526.66;4956841;28;20375;-71
2021/05/06 09:32:23;;;;;;;6.63;1.67;;;;;;;11.04;47.20;95520.88;4955777;29;20035;-77
2021/05/06 09:34:51;;;;;;;9.13;1.67;;;;;;;11.01;47.26;95523.22;4955005;29;20066;-69
2021/05/06 09:37:21;;;;;;;5.03;1.58;;;;;;;11.03;48.05;95521.94;4959752;28;20058;-74
2021/05/06 09:39:57;;;;;;;5.63;1.30;;;;;;;10.65;47.78;95528.22;4954879;28;20134;-64
2021/05/06 09:42:38;;;;;;;7.45;1.60;;;;;;;10.81;49.62;95529.13;4962355;28;20042;-63
2021/05/06 09:45:06;;;;;;;7.60;1.67;;;;;;;10.60;48.43;95530.84;4973882;28;20050;-65
2021/05/06 09:47:34;;;;;;;6.80;1.92;;;;;;;10.66;49.09;95521.97;4975621;28;20045;-65
2021/05/06 09:50:00;;;;;;;6.55;1.65;;;;;;;10.57;48.88;95528.72;4991560;28;20054;-63
2021/05/06 09:52:25;;;;;;;7.28;2.40;;;;;;;10.70;48.75;95527.47;4980482;28;20039;-64
2021/05/06 09:54:54;;;;;;;9.65;2.00;;;;;;;10.55;49.20;95524.75;4990058;28;20043;-65
2021/05/06 09:57:28;;;;;;;7.53;1.80;;;;;;;10.52;50.04;95526.06;4974788;28;20041;-63
2021/05/06 10:00:18;;;;;;;6.60;1.75;;;;;;;10.52;50.28;95520.78;4974831;28;20498;-65
2021/05/06 10:02:44;;;;;;;8.65;2.00;;;;;;;10.66;49.32;95524.59;4974986;28;20142;-63
2021/05/06 10:05:13;;;;;;;8.52;2.03;;;;;;;10.46;50.06;95529.69;4989762;28;20050;-66
2021/05/06 10:07:52;;;;;;;7.28;2.17;;;;;;;10.58;50.58;95524.25;4974765;28;20043;-64
2021/05/06 10:10:18;;;;;;;7.97;1.70;;;;;;;10.80;49.79;95526.75;4975317;28;20039;-65
2021/05/06 10:12:44;;;;;;;6.95;1.90;;;;;;;10.54;50.59;95526.56;4974666;28;20062;-66
2021/05/06 10:15:13;;;;;;;7.95;2.15;;;;;;;10.87;50.51;95527.31;4974487;28;20085;-65
2021/05/06 10:17:40;;;;;;;10.25;2.45;;;;;;;10.76;50.01;95524.66;4989221;28;20047;-66
2021/05/06 10:20:07;;;;;;;9.45;2.13;;;;;;;10.76;50.64;95529.91;4974767;28;20074;-64
2021/05/06 10:22:34;;;;;;;8.67;2.30;;;;;;;10.83;53.05;95523.63;4974497;28;20046;-64
2021/05/06 10:25:02;;;;;;;7.13;2.05;;;;;;;10.50;53.12;95518.41;4974144;28;20767;-65
2021/05/06 10:27:30;;;;;;;8.90;2.03;;;;;;;10.42;54.20;95521.50;4974301;28;20049;-65
2021/05/06 10:29:59;;;;;;;;;;;;;;;10.45;55.36;95514.97;4975505;28;20051;-64
2021/05/06 10:32:27;;;;;;;10.73;3.78;;;;;;;10.22;57.06;95524.75;4974488;28;19953;-65
2021/05/06 10:34:55;;;;;;;8.85;2.10;;;;;;;9.80;59.94;95516.72;4974801;28;20138;-65
2021/05/06 10:37:25;;;;;;;6.78;2.28;;;;;;;9.61;62.32;95513.63;4963399;28;20067;-65
2021/05/06 10:39:51;;;;;;;7.75;2.28;;;;;;;9.35;62.22;95523.03;4955015;28;20047;-64
2021/05/06 10:42:41;;;;;;;8.95;2.58;;;;;;;9.62;61.52;95520.44;4953753;29;20070;-65
2021/05/06 10:45:32;;;;;;;8.38;2.20;;;;;;;9.35;64.79;95516.97;4940198;29;20062;-66
2021/05/06 10:47:58;;;;;;;9.05;2.20;;;;;;;9.28;65.27;95517.19;4953846;28;20129;-70
2021/05/06 10:50:34;;;;;;;8.50;2.40;;;;;;;9.33;67.40;95519.06;4955276;29;20111;-65
2021/05/06 10:53:00;;;;;;;9.35;2.90;;;;;;;9.41;67.41;95519.41;4953820;29;20043;-69
2021/05/06 10:55:46;;;;;;;7.50;2.17;;;;;;;9.30;66.78;95506.44;4952856;28;20050;-66
2021/05/06 10:58:39;;;;;;;6.45;2.15;;;;;;;9.17;68.95;95510.22;4954726;28;20098;-64
2021/05/06 11:01:22;;;;;;;7.70;2.45;;;;;;;8.94;69.66;95512.03;4931739;29;20092;-65
2021/05/06 11:04:08;;;;;;;6.72;2.22;;;;;;;8.86;71.68;95511.63;4952692;29;20150;-65
2021/05/06 11:06:40;;;;;;;7.13;2.17;;;;;;;8.78;70.26;95510.25;4954593;28;20051;-64
2021/05/06 11:09:38;;;;;;;7.03;2.13;;;;;;;8.73;71.07;95477.91;4954415;28;20094;-66
2021/05/06 11:12:23;;;;;;;8.38;2.30;;;;;;;8.65;70.62;95497.44;4954873;28;20043;-65
2021/05/06 11:15:26;;;;;;;8.30;2.50;;;;;;;8.67;70.70;95501.44;4954309;28;20178;-65
2021/05/06 11:17:53;;;;;;;10.05;2.70;;;;;;;8.63;71.75;95499.53;4968059;28;20104;-65
2021/05/06 11:20:42;;;;;;;7.38;2.95;;;;;;;8.58;72.38;95494.22;4974121;28;20106;-64
2021/05/06 11:23:32;;;;;;;8.23;2.72;;;;;;;8.47;73.05;95495.88;4973359;28;20395;-66
2021/05/06 11:26:17;;;;;;;9.02;2.67;;;;;;;8.38;76.27;95500.72;4973591;28;20457;-65
2021/05/06 11:28:54;;;;;;;8.45;2.78;;;;;;;8.57;74.40;95495.25;4971967;28;20134;-64
2021/05/06 11:31:46;;;;;;;8.23;2.53;;;;;;;8.78;74.29;95491.09;4973419;28;20053;-65
2021/05/06 11:34:35;;;;;;;8.18;2.80;;;;;;;8.40;73.92;95474.28;4973200;28;20181;-66
2021/05/06 11:37:18;;;;;;;7.57;2.85;;;;;;;8.61;74.79;95481.44;4966783;28;20047;-63
2021/05/06 11:39:56;;;;;;;8.88;2.80;;;;;;;8.72;73.73;95478.91;4954849;28;20079;-71
2021/05/06 11:42:23;;;;;;;10.25;3.40;;;;;;;8.85;76.96;95468.09;4957528;28;20039;-68
2021/05/06 11:45:28;;;;;;;7.88;2.55;;;;;;;8.71;73.67;95469.47;4964151;28;20070;-77
2021/05/06 11:47:55;;;;;;;9.57;2.55;;;;;;;8.99;77.28;95469.34;4879250;29;20045;-76
2021/05/06 11:50:24;;;;;;;7.68;2.53;;;;;;;9.00;75.14;95452.56;4886234;29;20053;-68
2021/05/06 11:52:51;;;;;;;10.88;2.95;;;;;;;8.56;77.81;95457.75;4919069;29;20047;-71
2021/05/06 11:55:39;;;;;;;8.88;2.55;;;;;;;8.64;77.78;95454.72;4954136;28;20126;-66
2021/05/06 11:58:05;;;;;;;7.65;2.72;;;;;;;8.49;78.80;95446.63;4935429;29;20138;-71
2021/05/06 12:00:36;;;;;;;6.40;2.33;;;;;;;8.41;79.04;95454.91;4936969;29;20044;-67
2021/05/06 12:03:07;;;;;;;7.80;2.45;;;;;;;8.34;78.07;95449.81;4945023;28;20039;-76
2021/05/06 12:05:50;;;;;;;7.72;2.67;;;;;;;8.15;78.78;95451.88;4978325;28;20062;-73
2021/05/06 12:08:16;;;;;;;7.68;2.47;;;;;;;8.05;78.23;95451.72;4956809;28;20039;-70
2021/05/06 12:10:43;;;;;;;8.88;2.75;;;;;;;8.08;78.03;95450.47;4956550;28;20047;-77
2021/05/06 12:13:11;;;;;;;8.35;2.65;;;;;;;7.90;79.92;95444.41;4957901;28;20175;-80
2021/05/06 12:15:37;;;;;;;9.18;2.88;;;;;;;8.07;80.21;95443.59;4953937;28;20043;-67
2021/05/06 12:18:17;;;;;;;10.70;2.88;;;;;;;8.19;80.02;95446.16;4958561;28;20050;-75
2021/05/06 12:20:57;;;;;;;9.35;3.35;;;;;;;8.07;79.59;95438.38;4954906;28;20050;-76
2021/05/06 12:23:24;;;;;;;8.40;2.85;;;;;;;8.05;80.12;95441.22;4952305;29;20523;-66
2021/05/06 12:25:52;;;;;;;10.32;3.00;;;;;;;8.30;81.46;95440.06;4957660;29;20045;-68
2021/05/06 12:28:18;;;;;;;9.70;3.25;;;;;;;8.32;80.08;95435.34;4956403;28;20134;-73
2021/05/06 12:30:44;;;;;;;9.52;3.45;;;;;;;8.30;80.81;95432.97;4976066;28;20033;-81
2021/05/06 12:33:10;;;;;;;8.77;3.53;;;;;;;8.12;80.60;95427.97;4961833;28;20046;-66
2021/05/06 12:35:50;;;;;;;11.27;3.60;;;;;;;8.14;80.27;95411.00;4956572;28;20127;-66
2021/05/06 12:38:16;;;;;;;10.30;3.10;;;;;;;8.10;80.41;95411.72;4957128;28;20053;-72
2021/05/06 12:40:42;;;;;;;9.60;3.20;;;;;;;7.98;81.54;95405.78;4957229;28;20047;-73
2021/05/06 12:43:27;;;;;;;7.55;2.55;;;;;;;7.98;79.83;95392.69;4961249;28;20387;-68
2021/05/06 12:46:05;;;;;;;6.80;2.50;;;;;;;7.94;81.17;95389.72;4972356;28;20043;-69
2021/05/06 12:48:39;;;;;;;9.48;2.67;;;;;;;7.76;81.16;95389.97;4957781;28;20098;-67
2021/05/06 12:51:06;;;;;;;7.90;2.53;;;;;;;7.67;80.59;95386.16;4962289;28;20059;-78
2021/05/06 12:53:32;;;;;;;7.88;2.70;;;;;;;7.45;80.72;95384.25;4958798;28;20044;-69
2021/05/06 12:55:58;;;;;;;9.88;2.65;;;;;;;7.64;82.41;95384.78;4959892;28;20098;-79
2021/05/06 12:58:28;;;;;;;7.25;2.75;;;;;;;7.43;83.01;95386.31;4966915;29;20047;-77
2021/05/06 13:01:11;;;;;;;9.38;2.80;;;;;;;7.54;83.38;95377.59;4965809;29;20043;-71
2021/05/06 13:03:43;;;;;;;10.57;4.95;;;;;;;7.45;83.26;95376.38;4970925;28;20143;-79
2021/05/06 13:06:10;;;;;;;10.77;3.75;;;;;;;7.57;82.91;95365.84;4954937;29;20101;-75
2021/05/06 13:08:38;;;;;;;7.80;2.92;;;;;;;7.61;82.54;95370.38;4957848;28;20083;-68
2021/05/06 13:11:07;;;;;;;6.80;2.72;;;;;;;7.46;83.67;95359.66;4958901;29;20054;-70
2021/05/06 13:13:44;;;;;;;7.25;2.58;;;;;;;7.62;83.93;95366.72;4972995;28;20125;-69
2021/05/06 13:16:11;;;;;;;9.98;2.80;;;;;;;7.35;83.50;95361.31;4956937;28;20054;-72
2021/05/06 13:18:37;;;;;;;6.88;2.50;;;;;;;7.56;83.64;95351.97;4957647;28;20051;-72
2021/05/06 13:21:04;;;;;;;12.57;2.85;;;;;;;7.61;84.20;95356.50;4958153;28;20039;-69
2021/05/06 13:23:31;;;;;;;8.23;2.88;;;;;;;7.73;84.49;95348.56;4957701;28;20059;-71
2021/05/06 13:25:59;;;;;;;9.77;3.10;;;;;;;7.56;84.75;95343.31;4957599;28;20043;-73
2021/05/06 13:28:43;;;;;;;9.57;3.13;;;;;;;7.50;85.50;95339.84;4958282;28;20123;-73
2021/05/06 13:31:17;;;;;;;9.13;3.50;;;;;;;7.56;85.66;95327.63;4972630;29;20055;-71
2021/05/06 13:33:44;;;;;;;9.40;3.17;;;;;;;7.41;86.09;95333.41;4977388;28;20071;-71
2021/05/06 13:36:14;;;;;;;9.77;4.18;;;;;;;7.38;87.76;95331.28;4975572;28;20111;-71
2021/05/06 13:38:51;;;;;;;9.55;3.97;;;;;;;7.29;87.11;95327.44;4971257;29;20146;-72
2021/05/06 13:41:18;;;;;;;9.57;3.67;;;;;;;7.44;87.60;95332.94;4973367;29;20058;-70
2021/05/06 13:43:46;;;;;;;8.55;3.60;;;;;;;7.48;86.55;95326.22;4972236;28;20043;-70
2021/05/06 13:46:13;;;;;;;7.53;2.72;;;;;;;7.24;86.33;95314.28;4956904;28;20114;-70
2021/05/06 13:48:39;;;;;;;7.75;2.83;;;;;;;6.92;85.03;95317.41;4957785;28;20039;-70
2021/05/06 13:51:06;;;;;;;7.93;2.63;;;;;;;6.91;85.98;95315.81;4958188;28;20503;-70
2021/05/06 13:53:31;;;;;;;9.45;2.85;;;;;;;6.83;85.78;95313.56;4958897;28;20482;-72
2021/05/06 13:55:57;;;;;;;9.10;2.58;;;;;;;6.66;86.62;95307.50;4957194;29;20518;-71
2021/05/06 13:58:23;;;;;;;7.63;2.63;;;;;;;6.63;86.46;95300.13;4958305;29;20044;-70
2021/05/06 14:00:50;;;;;;;7.40;3.03;;;;;;;6.61;87.41;95304.78;4957127;29;20043;-70
2021/05/06 14:03:15;;;;;;;9.38;3.55;;;;;;;6.50;88.10;95306.41;4957733;29;20086;-70
2021/05/06 14:05:41;;;;;;;7.25;3.15;;;;;;;6.74;87.71;95297.47;4956293;29;20055;-71
2021/05/06 14:08:13;;;;;;;8.13;3.53;;;;;;;6.62;87.11;95295.91;4957140;29;20063;-70
2021/05/06 14:10:39;;;;;;;8.30;3.33;;;;;;;6.62;87.36;95299.34;4971505;28;20043;-70
2021/05/06 14:13:08;;;;;;;8.52;3.38;;;;;;;6.62;87.86;95296.72;4957396;28;20094;-71
2021/05/06 14:15:34;;;;;;;8.10;3.20;;;;;;;6.81;88.32;95286.88;4964578;28;20054;-70
2021/05/06 14:18:01;;;;;;;7.57;3.33;;;;;;;6.72;86.84;95280.44;4956205;29;20122;-70
2021/05/06 14:20:26;;;;;;;8.70;3.35;;;;;;;6.67;87.52;95278.50;4956770;28;20043;-70
2021/05/06 14:22:52;;;;;;;10.10;3.65;;;;;;;6.65;88.34;95271.94;4955534;28;20039;-72
2021/05/06 14:25:18;;;;;;;9.00;3.50;;;;;;;6.70;87.92;95266.81;4956249;28;20039;-70
2021/05/06 14:27:44;;;;;;;8.82;3.60;;;;;;;6.57;88.74;95273.91;4959070;28;20094;-71
2021/05/06 14:30:13;;;;;;;8.82;3.47;;;;;;;6.83;88.25;95269.13;4956021;29;20043;-71
2021/05/06 14:32:39;;;;;;;8.93;3.35;;;;;;;6.68;88.68;95274.09;4958417;29;20041;-70
2021/05/06 14:35:06;;;;;;;9.40;4.07;;;;;;;6.67;89.27;95269.88;4960325;29;20138;-72
2021/05/06 14:37:32;;;;;;;11.95;4.28;;;;;;;6.83;89.54;95266.50;4959072;29;20118;-73
2021/05/06 14:39:58;;;;;;;8.18;3.80;;;;;;;6.84;89.43;95262.88;4958519;29;20471;-74
2021/05/06 14:42:24;;;;;;;9.60;4.22;;;;;;;6.94;89.08;95259.63;4956266;28;20043;-72
2021/05/06 14:44:50;;;;;;;9.85;3.47;;;;;;;7.05;88.73;95256.97;4955438;28;20058;-72
2021/05/06 14:47:16;;;;;;;8.85;3.50;;;;;;;7.00;89.43;95251.66;4956749;28;20094;-72
2021/05/06 14:49:42;;;;;;;9.60;3.72;;;;;;;6.97;88.94;95246.09;4958594;29;20040;-71
2021/05/06 14:52:08;;;;;;;9.45;4.38;;;;;;;7.01;89.30;95237.56;4960116;28;20118;-69
2021/05/06 14:54:34;;;;;;;9.40;4.05;;;;;;;6.91;89.68;95232.16;4957449;28;20043;-77